Meldorf - Wetter, 4m . NN
Wetterdaten: aktuell Samstag, 16.02.2019 16:00
Datum Zeit Auentemp. Bodentemp. Feuchte A. Bodenfeuchte Luftdruck Regen Wind Richtung Richtung Sonnenschein Solar Windchill Windben Empfang
16.02.2019 16:00 11,1 C 5,0 C 70 % 115 cb 1022,5 hPa 0,0 mm 5,6 km/h (2 Bft) W-NW 294 60 min 112 W/m 11,1 C 11,3 km/h (2 Bft) 95 %
16.02.2019 15:00 11,3 C 4,4 C 68 % 115 cb 1022,2 hPa 0,0 mm 8,8 km/h (2 Bft) W 271 60 min 196 W/m 11,3 C 17,7 km/h (3 Bft) 98 %
16.02.2019 14:00 11,4 C 3,9 C 64 % 118 cb 1022,5 hPa 0,0 mm 11,3 km/h (2 Bft) W 261 60 min 310 W/m 11,4 C 20,9 km/h (4 Bft) 100 %
16.02.2019 13:00 10,4 C 3,9 C 68 % 120 cb 1022,5 hPa 0,0 mm 12,8 km/h (3 Bft) W 271 60 min 300 W/m 10,4 C 20,9 km/h (4 Bft) 97 %
16.02.2019 12:00 9,9 C 3,3 C 68 % 124 cb 1022,7 hPa 0,0 mm 12,8 km/h (3 Bft) W 274 60 min 318 W/m 8,1 C 19,3 km/h (3 Bft) 98 %
16.02.2019 11:00 7,8 C 3,3 C 72 % 126 cb 1022,9 hPa 0,0 mm 10,6 km/h (2 Bft) W 279 60 min 296 W/m 5,9 C 17,7 km/h (3 Bft) 99 %
16.02.2019 10:00 5,3 C 3,3 C 84 % 129 cb 1022,6 hPa 0,0 mm 7,2 km/h (2 Bft) W 269 57 min 212 W/m 3,7 C 11,3 km/h (2 Bft) 97 %
16.02.2019 09:10 2,1 C 3,3 C 89 % 129 cb 1022,7 hPa 0,0 mm 4,8 km/h (1 Bft) W-SW 247 26 min 125 W/m 0,9 C 8,0 km/h (2 Bft) 99 %
16.02.2019 08:00 0,6 C 3,3 C 87 % 129 cb 1022,6 hPa 0,0 mm 4,8 km/h (1 Bft) W-SW 247 0 min 9 W/m -0,8 C 9,7 km/h (2 Bft) 97 %
16.02.2019 07:00 0,7 C 3,3 C 84 % 129 cb 1022,6 hPa 0,0 mm 3,2 km/h (1 Bft) W-SW 247 0 min 0 W/m 0,7 C 6,4 km/h (2 Bft) 97 %
16.02.2019 06:00 1,4 C 3,3 C 83 % 128 cb 1022,5 hPa 0,0 mm 6,4 km/h (2 Bft) W-SW 247 0 min 0 W/m -0,6 C 11,3 km/h (2 Bft) 100 %
16.02.2019 05:00 2,2 C 3,3 C 81 % 127 cb 1023,0 hPa 0,0 mm 4,8 km/h (1 Bft) W-SW 247 0 min 0 W/m 1,0 C 8,0 km/h (2 Bft) 98 %
16.02.2019 04:00 2,4 C 3,3 C 80 % 126 cb 1023,3 hPa 0,0 mm 4,8 km/h (1 Bft) W-SW 247 0 min 0 W/m 1,2 C 8,0 km/h (2 Bft) 99 %
16.02.2019 03:00 2,8 C 3,9 C 78 % 126 cb 1024,1 hPa 0,0 mm 4,8 km/h (1 Bft) W-SW 247 0 min 0 W/m 1,7 C 8,0 km/h (2 Bft) 100 %
16.02.2019 02:00 3,6 C 3,9 C 74 % 126 cb 1024,8 hPa 0,0 mm 1,6 km/h (1 Bft) S-SW 202 0 min 0 W/m 3,6 C 6,4 km/h (2 Bft) 97 %
16.02.2019 01:00 4,0 C 3,9 C 73 % 125 cb 1025,3 hPa 0,0 mm 3,2 km/h (1 Bft) S-SW 202 0 min 0 W/m 4,0 C 6,4 km/h (2 Bft) 100 %
16.02.2019 00:00 3,8 C 3,9 C 72 % 125 cb 1025,6 hPa 0,0 mm 1,6 km/h (1 Bft) W-SW 247 0 min 0 W/m 3,8 C 3,2 km/h (1 Bft) 98 %
15.02.2019 23:00 4,6 C 3,9 C 71 % 124 cb 1025,9 hPa 0,0 mm 1,6 km/h (1 Bft) S-SW 202 0 min 0 W/m 4,6 C 3,2 km/h (1 Bft) 98 %
15.02.2019 22:00 4,3 C 4,4 C 73 % 123 cb 1026,6 hPa 0,0 mm 1,6 km/h (1 Bft) W-SW 247 0 min 0 W/m 4,3 C 6,4 km/h (2 Bft) 100 %
15.02.2019 21:00 4,8 C 4,4 C 70 % 122 cb 1027,2 hPa 0,0 mm 3,2 km/h (1 Bft) W-SW 247 0 min 0 W/m 4,8 C 4,8 km/h (1 Bft) 100 %
15.02.2019 20:00 6,0 C 4,4 C 67 % 121 cb 1027,6 hPa 0,0 mm 3,2 km/h (1 Bft) W-SW 247 0 min 0 W/m 6,0 C 4,8 km/h (1 Bft) 100 %
15.02.2019 19:00 7,6 C 4,4 C 67 % 120 cb 1027,8 hPa 0,0 mm 1,6 km/h (1 Bft) S-SW 207 0 min 0 W/m 7,6 C 6,4 km/h (2 Bft) 100 %
15.02.2019 18:00 9,7 C 4,4 C 61 % 118 cb 1028,3 hPa 0,0 mm 1,3 km/h (1 Bft) SW 215 0 min 0 W/m 9,7 C 4,8 km/h (1 Bft) 100 %
15.02.2019 17:00 12,6 C 4,4 C 55 % 118 cb 1028,3 hPa 0,0 mm 3,2 km/h (1 Bft) S-SW 202 0 min 26 W/m 12,6 C 6,4 km/h (2 Bft) 99 %
_ Min-Zeit 07:50 12:20 17:00 16:00 14:40 - 01:20 - - - - 08:00 20:40 09:00
Minimum _ 0,5 C 3,3 C 55 % 115 cb 1022,1 hPa - 0,0 km/h (0 Bft) - - - - -0,8 C 0,0 km/h (0 Bft) 94 %
_ Max-Zeit 17:00 16:00 09:23 10:10 18:10 16:00 11:40 - - 09:48 11:50 17:00 12:50 13:40
Maximum _ 12,7 C 5,0 C 89 % 129 cb 1028,3 hPa 0,0 mm 13,0 km/h
W (3 Bft)
- - 18 min 354 W/m 12,6 C 22,5 km/h
W (4 Bft)
100 %
Durchschnitt _ 6,1 C 3,9 C 72 % 123 cb 1024,7 hPa #0,0 mm 4,8 km/h (1 Bft) W-SW - #7:13 h 218 W/m 5,6 C 9,2 km/h (2 Bft) 98 %